Time;durP1;ratioP1;P1;durP2;ratioP2;P2;SDS_P1;SDS_P2;PMS_P1;PMS_P2;Temp;Humidity;BMP_temperature;BMP_pressure;BME280_temperature;BME280_humidity;BME280_pressure;Samples;Min_cycle;Max_cycle;Signal;HPM_P1;HPM_P2
2022/01/06 00:01:52;;;;;;;8.50;1.15;;;4.10;99.90;;;;;;5041111;28;20053;-62
2022/01/06 00:04:18;;;;;;;7.60;1.40;;;4.10;99.90;;;;;;5044586;28;20037;-62
2022/01/06 00:06:43;;;;;;;14.10;1.13;;;4.10;99.90;;;;;;5040212;28;20040;-66
2022/01/06 00:09:13;;;;;;;14.95;1.45;;;4.00;99.90;;;;;;5041520;28;20028;-62
2022/01/06 00:11:39;;;;;;;12.87;1.80;;;4.00;99.90;;;;;;5038780;28;20036;-62
2022/01/06 00:14:12;;;;;;;11.45;2.20;;;3.90;99.90;;;;;;5040695;28;20033;-62
2022/01/06 00:24:48;;;;;;;10.63;1.27;;;3.80;99.90;;;;;;5040842;28;20132;-62
2022/01/06 00:27:13;;;;;;;9.57;1.98;;;3.70;99.90;;;;;;5044020;28;20068;-63
2022/01/06 00:29:40;;;;;;;9.95;1.48;;;3.70;99.90;;;;;;5042796;28;20489;-62
2022/01/06 00:32:06;;;;;;;8.45;1.17;;;3.60;99.90;;;;;;5043883;28;20048;-68
2022/01/06 00:34:31;;;;;;;6.38;0.75;;;3.50;99.90;;;;;;5044147;28;20382;-64
2022/01/06 00:36:57;;;;;;;4.97;1.58;;;3.50;99.90;;;;;;5044151;28;20114;-62
2022/01/06 00:39:27;;;;;;;2.47;0.40;;;3.40;99.90;;;;;;5042758;28;20037;-62
2022/01/06 00:41:55;;;;;;;2.65;0.98;;;3.30;99.90;;;;;;5044150;28;20059;-62
2022/01/06 00:44:23;;;;;;;5.75;0.65;;;3.30;99.90;;;;;;5041373;28;20042;-64
2022/01/06 00:46:49;;;;;;;4.25;0.70;;;3.30;99.90;;;;;;5041917;28;20037;-61
2022/01/06 00:49:17;;;;;;;4.57;1.45;;;3.20;99.90;;;;;;5044978;28;20111;-63
2022/01/06 00:51:43;;;;;;;17.75;1.80;;;3.20;99.90;;;;;;5041350;28;20508;-64
2022/01/06 00:54:08;;;;;;;11.48;1.10;;;3.20;99.90;;;;;;5041404;28;20053;-64
2022/01/06 00:56:34;;;;;;;9.13;1.25;;;3.10;99.90;;;;;;5040961;28;20047;-64
2022/01/06 00:58:59;;;;;;;7.45;0.80;;;3.10;99.90;;;;;;5043513;28;20128;-62
2022/01/06 01:01:25;;;;;;;7.03;0.90;;;3.00;99.90;;;;;;5043288;28;21418;-62
2022/01/06 01:03:50;;;;;;;7.47;1.27;;;3.00;99.90;;;;;;5045572;28;20099;-62
2022/01/06 01:06:16;;;;;;;5.00;0.82;;;3.00;99.90;;;;;;5040602;28;20101;-64
2022/01/06 01:08:42;;;;;;;6.18;0.57;;;2.90;99.90;;;;;;5045471;28;20051;-62
2022/01/06 01:11:07;;;;;;;2.97;0.45;;;2.90;99.90;;;;;;5039586;28;20059;-62
2022/01/06 01:13:42;;;;;;;5.00;1.58;;;2.80;99.90;;;;;;5044421;28;20147;-63
2022/01/06 01:16:20;;;;;;;13.25;0.60;;;2.80;99.90;;;;;;5041009;28;20030;-62
2022/01/06 01:18:46;;;;;;;6.07;0.98;;;2.70;99.90;;;;;;5039657;28;20030;-62
2022/01/06 01:21:12;;;;;;;8.05;1.48;;;2.70;99.90;;;;;;5040463;28;20044;-63
2022/01/06 01:23:37;;;;;;;6.65;1.85;;;2.60;99.90;;;;;;5037346;28;20117;-62
2022/01/06 01:26:03;;;;;;;9.43;1.70;;;2.60;99.90;;;;;;5041465;28;20385;-61
2022/01/06 01:28:33;;;;;;;9.77;1.42;;;2.60;99.90;;;;;;5041997;28;20029;-62
2022/01/06 01:33:44;;;;;;;7.07;1.00;;;2.50;99.90;;;;;;5044590;28;20013;-62
2022/01/06 01:36:10;;;;;;;7.65;0.80;;;2.50;99.90;;;;;;5040815;28;20042;-62
2022/01/06 01:38:37;;;;;;;4.93;1.05;;;2.40;99.90;;;;;;5044045;28;20037;-62
2022/01/06 01:41:03;;;;;;;7.82;0.90;;;2.40;99.90;;;;;;5041335;28;20038;-62
2022/01/06 01:43:29;;;;;;;12.38;1.02;;;2.40;99.90;;;;;;5048241;28;20103;-63
2022/01/06 01:45:57;;;;;;;8.18;1.42;;;2.40;99.90;;;;;;5041378;28;20045;-63
2022/01/06 01:48:31;;;;;;;7.55;1.30;;;2.40;99.90;;;;;;5041805;28;20112;-63
2022/01/06 01:50:56;;;;;;;11.32;1.38;;;2.40;99.90;;;;;;5042824;28;20041;-61
2022/01/06 01:53:22;;;;;;;21.80;1.70;;;2.40;99.90;;;;;;5041781;28;20587;-61
2022/01/06 01:55:48;;;;;;;13.60;1.88;;;2.50;99.90;;;;;;5041689;28;20044;-61
2022/01/06 01:58:13;;;;;;;7.30;2.05;;;2.80;99.90;;;;;;5043279;28;20495;-63
2022/01/06 02:00:39;;;;;;;5.88;0.93;;;3.10;99.90;;;;;;5038726;28;20599;-61
2022/01/06 02:03:06;;;;;;;13.13;1.08;;;3.30;99.90;;;;;;5043471;28;20037;-62
2022/01/06 02:05:32;;;;;;;7.38;1.45;;;3.50;99.90;;;;;;5040725;28;20037;-62
2022/01/06 02:07:59;;;;;;;13.77;1.48;;;3.60;99.90;;;;;;5040586;28;20497;-62
2022/01/06 02:10:26;;;;;;;13.23;1.90;;;3.70;99.90;;;;;;5041500;28;20037;-61
2022/01/06 02:12:54;;;;;;;5.93;1.05;;;3.80;99.90;;;;;;5042281;28;20049;-61
2022/01/06 02:15:20;;;;;;;15.93;2.78;;;3.80;99.90;;;;;;5040972;28;20022;-62
2022/01/06 02:17:46;;;;;;;7.72;1.35;;;4.00;99.90;;;;;;5041180;28;20087;-63
2022/01/06 02:20:15;;;;;;;9.82;1.67;;;4.00;99.90;;;;;;5039005;28;20033;-63
2022/01/06 02:22:41;;;;;;;9.15;1.70;;;4.10;99.90;;;;;;5041053;28;20078;-62
2022/01/06 02:25:17;;;;;;;7.22;1.30;;;4.20;99.90;;;;;;5045657;28;20116;-62
2022/01/06 02:27:46;;;;;;;9.85;1.02;;;4.10;99.90;;;;;;5040435;28;20044;-61
2022/01/06 02:30:13;;;;;;;8.43;0.70;;;4.10;99.90;;;;;;5042252;28;20108;-61
2022/01/06 02:32:38;;;;;;;7.40;0.60;;;3.90;99.90;;;;;;5039341;28;20033;-63
2022/01/06 02:35:14;;;;;;;6.68;1.40;;;3.90;99.90;;;;;;5039601;28;20037;-62
2022/01/06 02:37:40;;;;;;;7.28;1.10;;;3.70;99.90;;;;;;5038556;28;20139;-62
2022/01/06 02:40:08;;;;;;;6.55;1.17;;;3.60;99.90;;;;;;5049483;28;20560;-62
2022/01/06 02:42:35;;;;;;;12.35;1.20;;;3.50;99.90;;;;;;5053163;28;20030;-61
2022/01/06 02:45:01;;;;;;;6.25;1.42;;;3.40;99.90;;;;;;5050756;28;20037;-61
2022/01/06 02:47:26;;;;;;;5.05;1.17;;;3.30;99.90;;;;;;5040834;28;20041;-62
2022/01/06 02:49:52;;;;;;;12.05;1.25;;;3.20;99.90;;;;;;5041258;28;20041;-62
2022/01/06 02:52:17;;;;;;;3.63;1.17;;;3.10;99.90;;;;;;5038825;28;20029;-61
2022/01/06 02:54:43;;;;;;;12.32;3.15;;;3.00;99.90;;;;;;5041796;28;20103;-62
2022/01/06 02:57:09;;;;;;;14.32;1.10;;;3.00;99.90;;;;;;5038959;28;20045;-62
2022/01/06 02:59:35;;;;;;;15.02;1.55;;;3.00;99.90;;;;;;5040267;28;20108;-62
2022/01/06 03:02:01;;;;;;;4.45;1.13;;;2.90;99.90;;;;;;5039155;28;20117;-63
2022/01/06 03:04:26;;;;;;;8.95;1.70;;;2.80;99.90;;;;;;5040001;28;20037;-62
2022/01/06 03:06:52;;;;;;;4.45;1.00;;;2.80;99.90;;;;;;5040637;28;20048;-62
2022/01/06 03:09:25;;;;;;;9.85;1.20;;;2.70;99.90;;;;;;5040227;28;20041;-62
2022/01/06 03:11:53;;;;;;;9.82;0.90;;;2.70;99.90;;;;;;5040605;28;20045;-61
2022/01/06 03:14:19;;;;;;;3.13;0.70;;;2.60;99.90;;;;;;5038566;28;20036;-62
2022/01/06 03:16:45;;;;;;;9.52;1.60;;;2.50;99.90;;;;;;5043307;28;20087;-61
2022/01/06 03:19:10;;;;;;;6.88;1.48;;;2.50;99.90;;;;;;5038788;28;20099;-62
2022/01/06 03:21:36;;;;;;;11.15;1.38;;;2.50;99.90;;;;;;5041885;28;20063;-62
2022/01/06 03:24:02;;;;;;;11.88;1.40;;;2.40;99.90;;;;;;5038791;28;20372;-61
2022/01/06 03:26:27;;;;;;;8.63;0.77;;;2.40;99.90;;;;;;5041295;28;20048;-61
2022/01/06 03:28:53;;;;;;;7.55;0.90;;;2.40;99.90;;;;;;5039744;28;20123;-61
2022/01/06 03:31:19;;;;;;;14.27;0.77;;;2.30;99.90;;;;;;5037693;28;20041;-61
2022/01/06 03:33:44;;;;;;;11.70;1.20;;;2.30;99.90;;;;;;5038720;28;20044;-61
2022/01/06 03:36:10;;;;;;;9.23;0.75;;;2.30;99.90;;;;;;5040688;28;20041;-62
2022/01/06 03:38:35;;;;;;;13.15;1.77;;;2.20;99.90;;;;;;5041144;28;20033;-62
2022/01/06 03:41:01;;;;;;;6.57;1.25;;;2.20;99.90;;;;;;5037138;28;20029;-62
2022/01/06 03:43:27;;;;;;;7.85;1.00;;;2.20;99.90;;;;;;5044224;28;20033;-62
2022/01/06 03:45:53;;;;;;;5.40;0.65;;;2.10;99.90;;;;;;5038559;28;20132;-62
2022/01/06 03:48:18;;;;;;;8.77;0.93;;;2.10;99.90;;;;;;5036315;28;20465;-61
2022/01/06 03:50:44;;;;;;;6.60;1.25;;;2.10;99.90;;;;;;5038511;28;20045;-61
2022/01/06 03:53:10;;;;;;;11.18;1.48;;;2.10;99.90;;;;;;5039820;28;20029;-62
2022/01/06 03:55:37;;;;;;;8.27;1.23;;;2.10;99.90;;;;;;5036204;28;20464;-60
2022/01/06 03:58:03;;;;;;;6.43;0.80;;;2.00;99.90;;;;;;5040817;28;20447;-61
2022/01/06 04:00:29;;;;;;;5.80;0.65;;;2.00;99.90;;;;;;5036703;28;20079;-60
2022/01/06 04:02:54;;;;;;;9.18;1.42;;;2.00;99.90;;;;;;5038600;28;20045;-62
2022/01/06 04:05:20;;;;;;;6.82;1.30;;;1.90;99.90;;;;;;5040182;28;20033;-62
2022/01/06 04:07:45;;;;;;;3.45;0.80;;;1.90;99.90;;;;;;5039183;28;20459;-61
2022/01/06 04:10:11;;;;;;;13.02;1.80;;;1.90;99.90;;;;;;5037840;28;20057;-62
2022/01/06 04:12:37;;;;;;;6.25;1.02;;;1.90;99.90;;;;;;5040085;28;20037;-62
2022/01/06 04:15:08;;;;;;;5.72;0.77;;;1.90;99.90;;;;;;5037036;28;20029;-62
2022/01/06 04:17:34;;;;;;;12.40;1.52;;;1.90;99.90;;;;;;5035556;28;20082;-62
2022/01/06 04:19:59;;;;;;;9.95;1.10;;;1.90;99.90;;;;;;5040292;28;20107;-61
2022/01/06 04:22:25;;;;;;;6.75;1.02;;;1.90;99.90;;;;;;5036912;28;20033;-62
2022/01/06 04:24:50;;;;;;;6.18;1.20;;;1.90;99.90;;;;;;5041291;28;20040;-62
2022/01/06 04:27:16;;;;;;;14.35;2.55;;;1.80;99.90;;;;;;5038502;28;20112;-62
2022/01/06 04:29:42;;;;;;;7.97;1.00;;;1.80;99.90;;;;;;5039150;28;20040;-62
2022/01/06 04:32:07;;;;;;;6.40;0.52;;;1.80;99.90;;;;;;5037173;28;20038;-63
2022/01/06 04:34:34;;;;;;;6.90;1.52;;;1.80;99.90;;;;;;5002544;28;1077462;-62
2022/01/06 04:37:00;;;;;;;6.38;0.47;;;1.70;99.90;;;;;;5037630;28;20121;-62
2022/01/06 04:39:26;;;;;;;6.70;0.93;;;1.70;99.90;;;;;;5040486;28;20059;-61
2022/01/06 04:41:51;;;;;;;8.98;1.30;;;1.70;99.90;;;;;;5045848;28;20541;-62
2022/01/06 04:44:17;;;;;;;4.57;0.77;;;1.60;99.90;;;;;;5038277;28;20746;-63
2022/01/06 04:46:43;;;;;;;8.57;1.00;;;1.60;99.90;;;;;;5037639;28;20111;-62
2022/01/06 04:49:09;;;;;;;2.92;0.45;;;1.50;99.90;;;;;;5039586;28;20408;-63
2022/01/06 04:51:35;;;;;;;12.07;0.90;;;1.50;99.90;;;;;;5037706;28;20124;-62
2022/01/06 04:54:01;;;;;;;7.50;0.60;;;1.40;99.90;;;;;;5035293;28;20034;-62
2022/01/06 04:56:27;;;;;;;3.95;0.70;;;1.50;99.90;;;;;;5040468;28;20039;-62
2022/01/06 04:58:53;;;;;;;13.15;1.80;;;1.50;99.90;;;;;;5036371;28;20387;-62
2022/01/06 05:01:18;;;;;;;9.55;1.30;;;1.40;99.90;;;;;;5040879;28;20513;-62
2022/01/06 05:03:44;;;;;;;3.17;0.70;;;1.50;99.90;;;;;;5041596;28;20032;-62
2022/01/06 05:06:10;;;;;;;9.13;0.93;;;1.50;99.90;;;;;;5040953;28;20088;-63
2022/01/06 05:08:35;;;;;;;6.32;0.73;;;1.40;99.90;;;;;;5043962;28;20052;-62
2022/01/06 05:11:01;;;;;;;2.38;0.47;;;1.40;99.90;;;;;;5041257;28;20038;-63
2022/01/06 05:13:27;;;;;;;11.30;1.15;;;1.40;99.90;;;;;;5042728;28;20127;-62
2022/01/06 05:15:52;;;;;;;5.57;1.48;;;1.40;99.90;;;;;;5041380;28;20045;-62
2022/01/06 05:18:18;;;;;;;4.57;0.90;;;1.40;99.90;;;;;;5043334;28;20043;-62
2022/01/06 05:20:43;;;;;;;12.13;1.50;;;1.40;99.90;;;;;;5042485;28;20108;-63
2022/01/06 05:23:11;;;;;;;9.70;0.77;;;1.40;99.90;;;;;;5042008;28;20477;-63
2022/01/06 05:25:37;;;;;;;6.65;1.25;;;1.40;99.90;;;;;;5043403;28;20040;-63
2022/01/06 05:28:03;;;;;;;9.68;0.85;;;1.50;99.90;;;;;;5041277;28;20697;-63
2022/01/06 05:30:29;;;;;;;15.32;1.80;;;1.50;99.90;;;;;;5039709;28;20043;-61
2022/01/06 05:32:54;;;;;;;8.18;1.00;;;1.50;99.90;;;;;;5044064;28;20064;-61
2022/01/06 05:35:20;;;;;;;3.92;0.95;;;1.50;99.90;;;;;;5041630;28;20029;-61
2022/01/06 05:37:46;;;;;;;8.65;1.65;;;1.50;99.90;;;;;;5041057;28;20342;-62
2022/01/06 05:40:12;;;;;;;8.18;1.00;;;1.50;99.90;;;;;;5043973;28;20081;-62
2022/01/06 05:42:38;;;;;;;4.47;0.90;;;1.50;99.90;;;;;;5039851;28;20076;-63
2022/01/06 05:45:04;;;;;;;6.05;1.20;;;1.50;99.90;;;;;;5040972;28;20437;-62
2022/01/06 05:47:30;;;;;;;5.80;1.05;;;1.50;99.90;;;;;;5040272;28;20061;-61
2022/01/06 05:49:56;;;;;;;7.97;0.90;;;1.50;99.90;;;;;;5041294;28;20052;-62
2022/01/06 05:52:22;;;;;;;8.68;1.00;;;1.50;99.90;;;;;;5037034;28;20029;-62
2022/01/06 05:54:47;;;;;;;3.13;0.70;;;1.40;99.90;;;;;;5045253;28;20060;-61
2022/01/06 05:57:15;;;;;;;12.30;1.20;;;1.40;99.90;;;;;;5042110;28;20120;-64
2022/01/06 05:59:41;;;;;;;11.65;1.15;;;1.40;99.90;;;;;;5041974;28;20048;-61
2022/01/06 06:02:07;;;;;;;8.05;0.50;;;1.40;99.90;;;;;;5041647;28;20025;-61
2022/01/06 06:04:33;;;;;;;7.47;0.77;;;1.40;99.90;;;;;;5042526;28;20036;-62
2022/01/06 06:06:58;;;;;;;5.75;0.98;;;1.40;99.90;;;;;;5040383;28;20484;-61
2022/01/06 06:09:24;;;;;;;14.55;1.67;;;1.40;99.90;;;;;;5052648;28;20551;-61
2022/01/06 06:11:50;;;;;;;3.70;0.80;;;1.40;99.90;;;;;;5046669;28;20032;-61
2022/01/06 06:14:15;;;;;;;2.60;0.60;;;1.50;99.90;;;;;;5037515;28;20047;-61
2022/01/06 06:16:41;;;;;;;11.00;1.17;;;1.50;99.90;;;;;;5044703;28;20040;-61
2022/01/06 06:19:07;;;;;;;10.35;1.58;;;1.50;99.90;;;;;;5043076;28;20041;-61
2022/01/06 06:21:32;;;;;;;7.25;1.25;;;1.50;99.90;;;;;;5047886;28;20033;-62
2022/01/06 06:23:58;;;;;;;9.15;0.68;;;1.40;99.90;;;;;;5048445;28;20043;-62
2022/01/06 06:26:23;;;;;;;10.30;1.48;;;1.50;99.90;;;;;;5048005;28;20125;-61
2022/01/06 06:28:49;;;;;;;7.03;0.95;;;1.50;99.90;;;;;;5048162;28;20040;-61
2022/01/06 06:31:15;;;;;;;2.40;0.50;;;1.40;99.90;;;;;;5047498;28;20035;-60
2022/01/06 06:33:40;;;;;;;1.80;0.52;;;1.40;99.90;;;;;;5048330;28;20047;-62
2022/01/06 06:36:06;;;;;;;4.88;1.02;;;1.40;99.90;;;;;;5048442;28;20102;-62
2022/01/06 06:38:31;;;;;;;4.18;0.80;;;1.40;99.90;;;;;;5052837;28;20037;-61
2022/01/06 06:40:57;;;;;;;10.82;0.75;;;1.40;99.90;;;;;;5045462;28;20033;-62
2022/01/06 06:43:22;;;;;;;7.45;1.65;;;1.40;99.90;;;;;;5049993;28;20099;-61
2022/01/06 06:45:48;;;;;;;11.48;1.63;;;1.40;99.90;;;;;;5047978;28;20029;-61
2022/01/06 06:48:14;;;;;;;7.72;1.58;;;1.40;99.90;;;;;;5047414;28;20037;-62
2022/01/06 06:50:39;;;;;;;8.43;1.48;;;1.30;99.90;;;;;;5047781;28;20037;-62
2022/01/06 06:53:07;;;;;;;5.93;0.50;;;1.30;99.90;;;;;;5049641;28;20116;-61
2022/01/06 06:55:33;;;;;;;10.13;0.95;;;1.30;99.90;;;;;;5046990;28;20082;-61
2022/01/06 06:57:58;;;;;;;6.22;0.60;;;1.20;99.90;;;;;;5047298;28;20675;-61
2022/01/06 07:00:24;;;;;;;3.60;0.65;;;1.20;99.90;;;;;;5047952;28;20033;-61
2022/01/06 07:02:49;;;;;;;5.65;0.98;;;1.30;99.90;;;;;;5049140;28;20405;-61
2022/01/06 07:05:15;;;;;;;17.33;1.55;;;1.30;99.90;;;;;;5047932;28;20872;-63
2022/01/06 07:07:42;;;;;;;8.35;1.05;;;1.30;99.90;;;;;;5050570;28;20056;-65
2022/01/06 07:10:08;;;;;;;4.25;0.90;;;1.30;99.90;;;;;;5048879;28;20067;-61
2022/01/06 07:12:38;;;;;;;6.85;0.70;;;1.30;99.90;;;;;;5049593;28;20470;-62
2022/01/06 07:15:05;;;;;;;10.67;1.07;;;1.30;99.90;;;;;;5046681;28;20095;-61
2022/01/06 07:17:31;;;;;;;7.72;0.90;;;1.30;99.90;;;;;;5047739;28;20310;-62
2022/01/06 07:19:56;;;;;;;4.47;0.70;;;1.30;99.90;;;;;;5056197;28;20280;-63
2022/01/06 07:22:22;;;;;;;8.60;1.45;;;1.50;99.90;;;;;;5053996;28;20098;-62
2022/01/06 07:24:47;;;;;;;8.43;1.02;;;1.70;99.90;;;;;;5053042;28;20052;-62
2022/01/06 07:27:13;;;;;;;6.05;1.35;;;1.80;99.90;;;;;;5045376;28;20032;-62
2022/01/06 07:29:38;;;;;;;7.97;1.00;;;1.80;99.90;;;;;;5047581;28;20493;-61
2022/01/06 07:32:04;;;;;;;3.83;0.88;;;1.80;99.90;;;;;;5046850;28;20567;-62
2022/01/06 07:34:30;;;;;;;6.43;1.10;;;1.80;99.90;;;;;;5045988;28;20041;-62
2022/01/06 07:36:55;;;;;;;5.85;0.88;;;1.80;99.90;;;;;;5049070;28;20131;-62
2022/01/06 07:39:21;;;;;;;3.33;0.80;;;1.80;99.90;;;;;;5047654;28;20454;-63
2022/01/06 07:41:46;;;;;;;7.32;1.10;;;1.90;99.90;;;;;;5047837;28;20041;-62
2022/01/06 07:44:12;;;;;;;7.45;0.77;;;1.80;99.90;;;;;;5049226;28;20132;-62
2022/01/06 07:46:37;;;;;;;6.10;0.82;;;1.90;99.90;;;;;;5045818;28;20040;-62
2022/01/06 07:49:04;;;;;;;9.98;1.83;;;1.80;99.90;;;;;;5045664;28;20048;-61
2022/01/06 07:51:31;;;;;;;8.07;1.13;;;1.80;99.90;;;;;;5053044;28;20483;-61
2022/01/06 07:53:58;;;;;;;12.30;2.58;;;1.80;99.90;;;;;;5047985;28;20036;-61
2022/01/06 07:56:24;;;;;;;7.22;0.98;;;1.80;99.90;;;;;;5050219;28;20037;-61
2022/01/06 07:58:50;;;;;;;3.63;0.90;;;1.80;99.90;;;;;;5048063;28;20044;-60
2022/01/06 08:01:16;;;;;;;9.38;1.52;;;1.80;99.90;;;;;;5047440;28;20116;-61
2022/01/06 08:03:42;;;;;;;5.13;1.20;;;1.80;99.90;;;;;;5046863;28;20040;-62
2022/01/06 08:06:08;;;;;;;5.63;1.00;;;1.80;99.90;;;;;;5046070;28;20067;-61
2022/01/06 08:08:34;;;;;;;7.47;1.33;;;1.70;99.90;;;;;;5047447;28;20102;-62
2022/01/06 08:11:00;;;;;;;12.63;1.63;;;1.70;99.90;;;;;;5047323;28;20523;-61
2022/01/06 08:13:25;;;;;;;8.80;1.80;;;1.70;99.90;;;;;;5049990;28;20029;-62
2022/01/06 08:15:51;;;;;;;19.48;3.15;;;1.70;99.90;;;;;;5045768;28;20032;-61
2022/01/06 08:18:17;;;;;;;7.35;1.33;;;1.70;99.90;;;;;;5047022;28;20064;-62
2022/01/06 08:20:42;;;;;;;11.55;2.03;;;1.70;99.90;;;;;;5045150;28;20480;-62
2022/01/06 08:23:08;;;;;;;10.93;1.25;;;1.70;99.90;;;;;;5048840;28;20048;-61
2022/01/06 08:25:35;;;;;;;7.45;1.55;;;1.70;99.90;;;;;;5048909;28;20728;-61
2022/01/06 08:28:01;;;;;;;5.25;1.30;;;1.70;99.90;;;;;;5045686;28;20511;-61
2022/01/06 08:30:27;;;;;;;8.23;1.38;;;1.70;99.90;;;;;;5045177;28;20060;-62
2022/01/06 08:32:54;;;;;;;7.75;2.30;;;1.70;99.90;;;;;;5046022;28;20036;-61
2022/01/06 08:35:21;;;;;;;5.75;1.10;;;1.70;99.90;;;;;;5045752;28;20441;-61
2022/01/06 08:37:46;;;;;;;5.97;1.27;;;1.70;99.90;;;;;;5043916;28;20037;-62
2022/01/06 08:40:12;;;;;;;8.23;1.35;;;1.70;99.90;;;;;;5045530;28;20037;-62
2022/01/06 08:42:38;;;;;;;11.10;2.00;;;1.60;99.90;;;;;;5049114;28;20041;-61
2022/01/06 08:45:04;;;;;;;8.57;1.80;;;1.70;99.90;;;;;;5049369;28;20025;-62
2022/01/06 08:47:31;;;;;;;7.47;1.48;;;1.70;99.90;;;;;;5046925;28;20078;-61
2022/01/06 08:49:57;;;;;;;10.05;1.90;;;1.70;99.90;;;;;;5047061;28;20079;-61
2022/01/06 08:52:22;;;;;;;13.13;2.13;;;1.70;99.90;;;;;;5044607;28;20029;-61
2022/01/06 08:54:48;;;;;;;9.10;1.75;;;1.70;99.90;;;;;;5045371;28;20045;-61
2022/01/06 08:57:15;;;;;;;5.75;1.67;;;1.70;99.90;;;;;;5046063;28;20396;-62
2022/01/06 08:59:40;;;;;;;12.27;2.85;;;1.80;99.90;;;;;;5049185;28;20453;-61
2022/01/06 09:02:06;;;;;;;9.57;1.85;;;1.80;99.90;;;;;;5045098;28;20029;-62
2022/01/06 09:04:31;;;;;;;9.50;1.63;;;1.90;99.90;;;;;;5046402;28;20040;-61
2022/01/06 09:06:58;;;;;;;8.60;1.20;;;1.90;99.90;;;;;;5045067;28;20065;-62
2022/01/06 09:09:24;;;;;;;9.75;1.17;;;1.90;99.90;;;;;;5042076;28;20863;-61
2022/01/06 09:11:50;;;;;;;9.60;1.20;;;2.00;99.90;;;;;;5044410;28;20040;-62
2022/01/06 09:14:16;;;;;;;9.90;1.77;;;2.10;99.90;;;;;;5044356;28;20115;-62
2022/01/06 09:16:42;;;;;;;13.77;1.63;;;2.10;99.90;;;;;;5045447;28;20131;-61
2022/01/06 09:19:08;;;;;;;8.88;1.35;;;2.20;99.90;;;;;;5046591;28;20568;-61
2022/01/06 09:21:33;;;;;;;8.52;1.17;;;2.30;99.90;;;;;;5047568;28;20479;-61
2022/01/06 09:24:01;;;;;;;7.43;0.95;;;2.30;99.90;;;;;;5046548;28;20393;-61
2022/01/06 09:26:27;;;;;;;3.67;0.98;;;2.40;99.90;;;;;;5045181;28;20029;-62
2022/01/06 09:28:53;;;;;;;6.45;1.13;;;2.50;99.90;;;;;;5046801;28;20572;-61
2022/01/06 09:31:18;;;;;;;10.10;1.55;;;2.60;99.90;;;;;;5043652;28;20095;-61
2022/01/06 09:33:44;;;;;;;8.80;1.40;;;2.60;99.90;;;;;;5043794;28;20102;-62
2022/01/06 09:36:10;;;;;;;8.40;1.00;;;2.70;99.90;;;;;;5048588;28;20043;-62
2022/01/06 09:38:36;;;;;;;3.97;1.08;;;2.70;99.90;;;;;;5045600;28;20090;-63
2022/01/06 09:41:05;;;;;;;14.20;1.45;;;2.80;99.90;;;;;;5046692;28;20120;-61
2022/01/06 09:43:32;;;;;;;8.90;1.63;;;2.90;99.90;;;;;;5042096;28;20061;-61
2022/01/06 09:46:02;;;;;;;9.63;1.23;;;2.90;99.90;;;;;;5045372;28;20445;-62
2022/01/06 09:48:30;;;;;;;9.35;1.42;;;3.00;99.90;;;;;;5045895;28;20546;-61
2022/01/06 09:50:56;;;;;;;7.45;1.10;;;3.10;99.90;;;;;;5050101;28;20040;-61
2022/01/06 09:53:21;;;;;;;10.38;1.45;;;3.10;99.90;;;;;;5046862;28;20059;-60
2022/01/06 09:55:47;;;;;;;7.78;1.63;;;3.20;99.90;;;;;;5048159;28;20461;-62
2022/01/06 09:58:23;;;;;;;15.20;1.70;;;3.30;99.90;;;;;;5048554;28;20025;-60
2022/01/06 10:00:49;;;;;;;5.38;1.75;;;3.30;99.90;;;;;;5048652;28;20422;-61
2022/01/06 10:03:15;;;;;;;4.85;1.08;;;3.40;99.90;;;;;;5048392;28;20032;-61
2022/01/06 10:05:49;;;;;;;5.90;1.00;;;3.50;99.90;;;;;;5048215;28;20065;-60
2022/01/06 10:08:26;;;;;;;7.20;1.70;;;3.50;99.90;;;;;;5049089;28;20127;-62
2022/01/06 10:10:52;;;;;;;5.15;2.22;;;3.60;99.90;;;;;;5050748;28;20079;-61
2022/01/06 10:13:19;;;;;;;4.88;1.13;;;3.70;99.90;;;;;;5052774;28;20078;-61
2022/01/06 10:15:46;;;;;;;7.53;1.92;;;3.80;99.90;;;;;;5049501;28;20135;-61
2022/01/06 10:18:16;;;;;;;8.65;1.60;;;3.80;99.90;;;;;;5047182;28;20614;-61
2022/01/06 10:20:43;;;;;;;7.70;1.50;;;3.90;99.90;;;;;;5049548;28;20028;-62
2022/01/06 10:23:15;;;;;;;12.55;2.13;;;3.90;99.90;;;;;;5054406;28;20037;-62
2022/01/06 10:25:49;;;;;;;15.90;1.38;;;4.00;99.90;;;;;;5050320;28;20508;-61
2022/01/06 10:28:23;;;;;;;8.13;1.27;;;4.10;99.90;;;;;;5048018;28;20045;-61
2022/01/06 10:30:49;;;;;;;12.13;1.75;;;4.10;99.90;;;;;;5051638;28;20041;-61
2022/01/06 10:33:20;;;;;;;8.13;1.65;;;4.10;99.90;;;;;;5046146;28;20029;-61
2022/01/06 10:35:47;;;;;;;10.98;1.10;;;4.10;99.90;;;;;;5045723;28;20025;-62
2022/01/06 10:38:13;;;;;;;8.00;1.85;;;4.10;99.90;;;;;;5045740;28;20029;-61
2022/01/06 10:40:39;;;;;;;8.23;1.27;;;4.10;99.90;;;;;;5046381;28;20035;-61
2022/01/06 10:43:05;;;;;;;5.65;1.30;;;4.10;99.90;;;;;;5045076;28;20025;-62
2022/01/06 10:45:32;;;;;;;8.80;1.33;;;4.10;99.90;;;;;;5048998;28;20088;-61
2022/01/06 10:48:01;;;;;;;8.93;1.13;;;4.10;99.90;;;;;;5049974;28;20075;-62
2022/01/06 10:50:33;;;;;;;10.68;1.55;;;4.10;99.90;;;;;;5052813;28;20028;-61
2022/01/06 10:53:03;;;;;;;3.35;0.90;;;4.10;99.90;;;;;;5049803;28;20127;-62
2022/01/06 10:55:33;;;;;;;8.75;1.27;;;4.10;99.90;;;;;;5047167;28;20125;-61
2022/01/06 10:58:07;;;;;;;7.22;1.30;;;4.10;99.90;;;;;;5048918;28;20114;-62
2022/01/06 11:00:36;;;;;;;7.28;1.40;;;4.20;99.90;;;;;;5051638;28;20124;-62
2022/01/06 11:03:10;;;;;;;12.05;1.55;;;4.30;99.90;;;;;;5047806;28;20037;-63
2022/01/06 11:05:38;;;;;;;6.60;1.20;;;4.50;99.90;;;;;;5046438;28;20048;-63
2022/01/06 11:08:05;;;;;;;10.15;1.38;;;4.60;99.90;;;;;;5048635;28;20025;-62
2022/01/06 11:10:35;;;;;;;11.07;1.92;;;4.70;99.90;;;;;;5048819;28;20040;-64
2022/01/06 11:13:01;;;;;;;12.07;1.40;;;4.70;99.90;;;;;;5047020;28;20040;-62
2022/01/06 11:15:27;;;;;;;8.25;1.58;;;4.80;99.90;;;;;;5046484;28;20022;-63
2022/01/06 11:17:53;;;;;;;9.65;2.20;;;4.80;99.90;;;;;;5045405;28;20112;-63
2022/01/06 11:20:24;;;;;;;12.95;1.83;;;4.80;99.90;;;;;;5044630;28;20528;-63
2022/01/06 11:22:53;;;;;;;13.68;1.30;;;4.80;99.90;;;;;;5047540;28;20033;-61
2022/01/06 11:25:38;;;;;;;8.25;2.35;;;4.90;99.90;;;;;;5047619;28;20039;-62
2022/01/06 11:28:12;;;;;;;7.80;1.80;;;5.00;99.90;;;;;;5046877;28;20033;-63
2022/01/06 11:30:41;;;;;;;6.80;1.25;;;5.10;99.90;;;;;;5049334;28;20487;-63
2022/01/06 11:33:06;;;;;;;16.75;2.03;;;5.20;99.90;;;;;;5044139;28;20061;-62
2022/01/06 11:35:47;;;;;;;12.07;2.20;;;5.20;99.90;;;;;;5046159;28;20079;-62
2022/01/06 11:38:15;;;;;;;10.18;1.98;;;5.40;99.90;;;;;;5048970;28;20060;-64
2022/01/06 11:40:42;;;;;;;15.80;2.28;;;5.50;99.90;;;;;;5044299;28;20080;-62
2022/01/06 11:43:08;;;;;;;12.60;2.25;;;5.60;99.90;;;;;;5045483;28;20040;-62
2022/01/06 11:45:34;;;;;;;7.47;0.82;;;5.80;99.90;;;;;;5045810;28;20587;-62
2022/01/06 11:48:01;;;;;;;10.65;1.83;;;5.90;99.90;;;;;;5043308;28;20056;-63
2022/01/06 11:50:27;;;;;;;8.25;1.67;;;6.10;99.90;;;;;;5042259;28;20037;-62
2022/01/06 11:52:58;;;;;;;4.53;0.98;;;6.20;99.90;;;;;;5050874;28;20090;-62
2022/01/06 11:55:30;;;;;;;3.85;0.70;;;6.40;99.90;;;;;;5046723;28;20022;-63
2022/01/06 11:58:17;;;;;;;8.75;1.20;;;6.50;99.90;;;;;;5044499;28;20067;-62
2022/01/06 12:01:07;;;;;;;18.33;3.25;;;6.60;99.90;;;;;;5044262;28;20067;-63
2022/01/06 12:03:38;;;;;;;6.68;0.88;;;6.80;99.90;;;;;;5045518;28;20128;-62
2022/01/06 12:06:05;;;;;;;8.45;1.27;;;6.80;99.90;;;;;;5046891;28;20033;-61
2022/01/06 12:08:40;;;;;;;10.98;0.98;;;6.90;99.90;;;;;;5046283;28;20033;-61
2022/01/06 12:11:34;;;;;;;9.63;2.25;;;7.00;99.90;;;;;;5045515;28;20040;-61
2022/01/06 12:14:01;;;;;;;8.10;1.15;;;7.10;99.90;;;;;;5045766;28;20041;-61
2022/01/06 12:16:29;;;;;;;6.80;1.83;;;7.30;99.90;;;;;;5046179;28;20123;-62
2022/01/06 12:18:56;;;;;;;9.20;0.90;;;7.30;99.90;;;;;;5046360;28;20496;-61
2022/01/06 12:21:22;;;;;;;6.70;0.73;;;7.20;99.90;;;;;;5048976;28;20152;-62
2022/01/06 12:23:59;;;;;;;4.65;0.73;;;7.20;99.90;;;;;;5045863;28;20037;-62
2022/01/06 12:26:25;;;;;;;2.70;0.70;;;7.20;99.90;;;;;;5045261;28;20163;-61
2022/01/06 12:28:50;;;;;;;12.27;2.00;;;7.10;99.90;;;;;;5044694;28;20095;-61
2022/01/06 12:31:24;;;;;;;9.73;1.83;;;7.00;99.90;;;;;;5045648;28;20167;-62
2022/01/06 12:33:52;;;;;;;10.68;1.73;;;7.00;99.90;;;;;;5046182;28;20032;-61
2022/01/06 12:36:20;;;;;;;8.60;1.08;;;6.90;99.90;;;;;;5048951;28;20029;-62
2022/01/06 12:38:47;;;;;;;4.72;1.65;;;6.90;99.90;;;;;;5045632;28;20037;-61
2022/01/06 12:41:16;;;;;;;8.00;1.15;;;6.80;99.90;;;;;;5044739;28;20127;-62
2022/01/06 12:43:43;;;;;;;4.05;0.80;;;6.80;99.90;;;;;;5045940;28;20037;-60
2022/01/06 12:46:18;;;;;;;3.83;1.33;;;6.80;99.90;;;;;;5046088;28;20057;-62
2022/01/06 12:48:52;;;;;;;3.53;0.75;;;6.70;99.90;;;;;;5046873;28;20045;-62
2022/01/06 12:51:20;;;;;;;3.30;0.55;;;6.80;99.90;;;;;;5045132;28;20025;-62
2022/01/06 12:53:48;;;;;;;2.40;0.80;;;6.80;99.90;;;;;;5045241;28;20045;-62
2022/01/06 12:56:26;;;;;;;4.88;0.80;;;6.80;99.90;;;;;;5048802;28;20028;-62
2022/01/06 12:58:52;;;;;;;6.63;1.83;;;6.80;99.90;;;;;;5044041;28;20040;-63
2022/01/06 13:01:18;;;;;;;7.28;1.17;;;6.80;99.90;;;;;;5043675;28;20105;-63
2022/01/06 13:03:47;;;;;;;7.35;1.00;;;6.80;99.90;;;;;;5049298;28;20041;-61
2022/01/06 13:06:13;;;;;;;4.03;0.50;;;6.80;99.90;;;;;;5044853;28;20036;-63